Date,TemperatureHighF,TemperatureAvgF,TemperatureLowF,DewpointHighF,DewpointAvgF,DewpointLowF,HumidityHigh,HumidityAvg,HumidityLow,PressureMaxIn,PressureMinIn,WindSpeedMaxMPH,WindSpeedAvgMPH,GustSpeedMaxMPH,PrecipitationSumIn
2013-1-1,75,61,47,61,55,47,100,85,60,30.24,30.02,4,1,9,0.00
2013-1-2,75,65,58,69,62,57,96,90,79,30.10,29.98,4,1,7,0.01
2013-1-3,62,57,50,61,56,49,98,96,91,30.27,30.07,3,1,7,0.14
2013-1-4,56,51,48,53,49,46,97,92,86,30.34,30.24,3,1,9,0.00
2013-1-5,63,54,44,55,48,39,92,83,73,30.37,30.27,4,1,8,0.00
2013-1-6,61,56,51,56,54,50,99,93,83,30.28,30.14,3,1,7,1.01
2013-1-7,62,54,48,56,51,44,98,87,76,30.32,30.20,6,2,12,0.00
2013-1-8,70,62,58,66,59,55,97,92,84,30.31,30.21,5,1,10,0.00
2013-1-9,75,66,62,70,65,61,100,96,86,30.36,30.25,4,1,10,0.00
2013-1-10,79,68,63,72,66,63,100,94,72,30.37,30.29,3,1,6,0.04
2013-1-11,82,69,59,70,64,59,100,88,56,30.29,30.17,3,1,4,0.01
2013-1-12,82,68,59,70,64,59,100,88,57,30.22,30.12,2,1,4,0.00
2013-1-13,80,68,58,69,63,58,100,88,57,30.20,30.09,3,0,4,0.01
2013-1-14,81,69,59,69,64,58,100,85,60,30.21,30.12,4,1,6,0.00
2013-1-15,80,70,61,69,65,60,100,86,62,30.18,30.07,4,1,8,0.00
2013-1-16,80,70,65,69,66,64,98,88,58,30.10,30.02,3,1,7,0.00
2013-1-18,57,54,49,48,46,43,83,74,68,30.42,30.38,9,6,16,0.00
2013-1-19,63,55,48,56,51,43,95,86,79,30.39,30.22,7,2,12,0.00
2013-1-20,74,61,53,56,54,51,96,80,49,30.24,30.09,3,1,6,0.00
2013-1-21,70,58,50,53,50,44,98,77,52,30.15,30.04,3,1,6,0.00
2013-1-22,63,53,45,44,37,32,69,55,33,30.33,30.11,4,1,7,0.00
2013-1-23,64,49,38,42,36,31,85,62,38,30.45,30.30,3,1,5,0.00
2013-1-24,73,58,45,56,49,40,88,72,49,30.33,30.21,5,1,14,0.00
2013-1-25,75,62,56,58,53,50,92,75,44,30.35,30.18,5,2,10,0.00
2013-1-26,75,63,52,64,58,51,98,83,65,30.26,30.17,3,1,7,0.00
2013-1-27,68,62,60,60,58,56,94,86,71,30.40,30.23,7,3,12,0.00
2013-1-28,78,66,55,65,61,54,99,85,63,30.39,30.27,4,1,7,0.00
2013-1-29,81,69,59,69,65,58,100,88,63,30.29,30.11,4,1,6,0.00
2013-1-30,85,74,59,68,66,57,97,78,56,30.13,29.79,7,2,9,0.18
2013-1-31,59,56,54,57,54,52,94,92,90,29.93,29.90,5,3,8,0.07
2013-2-1,65,58,48,40,36,29,69,46,35,30.36,30.27,4,2,12,0.00
2013-2-2,66,50,37,44,34,25,93,57,28,30.38,30.18,4,1,7,0.00
2013-2-3,67,53,42,44,37,30,94,59,26,30.22,30.06,4,1,8,0.00
2013-2-4,65,53,39,48,43,38,96,71,40,30.16,30.07,3,0,5,0.00
2013-2-5,69,57,44,55,48,41,94,73,50,30.13,30.02,3,0,4,0.00
2013-2-6,69,62,57,60,58,54,94,85,73,30.18,30.06,2,0,3,0.01
2013-2-7,76,67,60,66,63,59,98,89,69,30.13,29.82,4,1,7,0.05
2013-2-8,70,62,55,66,57,53,94,83,65,30.11,29.85,4,2,8,0.00
2013-2-9,65,57,50,54,50,45,95,78,56,30.28,30.10,6,2,10,0.00
2013-2-10,75,64,52,61,57,51,98,79,56,30.33,30.18,5,2,9,0.00
2013-2-11,82,71,62,66,63,60,92,78,57,30.21,30.07,4,1,7,0.00
2013-2-12,83,72,63,70,66,62,99,84,59,30.09,29.88,3,1,5,0.00
2013-2-13,77,71,61,74,66,52,98,84,55,29.94,29.81,4,1,10,0.42
2013-2-14,62,53,48,57,50,45,95,89,81,30.11,29.92,3,1,5,0.15
2013-2-15,64,52,43,51,46,41,96,81,54,30.14,30.00,3,1,7,0.00
2013-2-16,59,48,41,47,42,25,97,81,53,30.18,29.95,8,2,12,0.02
2013-2-17,53,41,32,30,21,12,83,50,20,30.40,30.17,6,2,10,0.00
2013-2-18,62,46,29,46,36,27,96,73,43,30.46,30.26,4,1,8,0.00
2013-2-19,79,63,45,63,54,43,97,75,46,30.27,30.02,5,2,11,0.08
2013-2-20,70,56,47,58,42,30,95,61,32,30.21,30.08,4,1,7,0.00
2013-2-21,70,57,44,58,49,42,97,77,45,30.19,30.06,4,1,8,0.00
2013-2-22,84,71,61,70,66,58,99,85,57,30.10,30.00,4,1,6,0.00
2013-2-23,84,73,62,70,67,61,99,84,58,30.00,29.85,6,2,12,0.38
2013-2-24,74,65,58,64,59,45,100,84,38,30.02,29.87,3,1,5,0.20
2013-2-25,68,63,58,67,62,57,99,96,90,29.96,29.82,7,2,14,2.30
2013-2-26,80,70,61,70,64,56,99,84,47,29.84,29.67,6,2,19,0.70
2013-2-27,72,61,54,56,49,44,85,67,39,29.99,29.84,5,2,9,0.00
2013-2-28,70,59,48,49,44,36,89,61,40,30.00,29.86,7,2,12,0.00
2013-3-1,62,54,48,41,39,36,69,57,44,30.03,29.92,4,2,9,0.00
2013-3-2,55,46,38,39,34,30,90,65,41,30.06,29.95,7,2,15,0.00
2013-3-3,47,41,33,34,31,29,88,68,51,30.17,30.03,6,2,8,0.00
2013-3-4,65,47,33,45,33,26,87,61,32,30.25,30.14,4,1,7,0.00
2013-3-5,77,60,40,59,47,37,93,66,33,30.21,29.92,4,2,8,0.00
2013-3-6,66,53,45,62,38,30,91,58,34,30.17,29.88,7,4,14,0.05
2013-3-7,64,49,38,46,38,32,94,67,42,30.27,30.16,4,1,6,0.00
2013-3-8,69,53,39,53,45,38,98,78,38,30.26,30.18,6,1,8,0.00
2013-3-9,68,55,44,53,49,43,98,81,51,30.30,30.20,6,2,10,0.00
2013-3-10,75,63,50,60,55,49,98,79,53,30.25,30.15,5,2,8,0.00
2013-3-11,77,67,55,62,59,54,98,77,56,30.16,29.91,3,1,7,0.00
2013-3-12,70,65,52,68,60,48,99,85,57,30.04,29.84,3,1,8,0.13
2013-3-13,72,59,48,48,39,32,88,52,25,30.21,30.03,4,2,8,0.00
2013-3-14,63,52,42,41,34,30,88,52,31,30.33,30.19,4,2,8,0.00
2013-3-15,75,55,39,48,40,31,92,62,30,30.31,30.14,4,1,7,0.00
2013-3-16,82,64,45,56,49,42,97,62,33,30.18,30.01,5,2,10,0.00
2013-3-17,78,65,50,56,50,44,94,61,35,30.15,30.00,4,1,9,0.00
2013-3-18,82,70,62,66,62,55,93,77,56,30.07,29.87,4,1,6,0.00
2013-3-19,82,70,61,65,62,58,96,75,45,30.04,29.90,5,1,8,0.09
2013-3-20,66,58,52,62,55,51,98,89,72,30.01,29.86,6,1,8,0.20
2013-3-21,69,55,44,53,38,29,98,61,23,29.98,29.88,4,1,9,0.01
2013-3-22,66,56,46,51,43,37,83,63,40,30.09,29.95,4,2,10,0.00
2013-3-23,68,62,57,66,60,51,99,92,80,30.03,29.80,6,1,7,1.04
2013-3-24,84,80,74,74,73,72,96,81,66,29.62,29.55,5,4,16,0.38
2013-3-26,58,49,40,33,30,25,66,49,35,30.28,30.08,6,3,11,0.00
2013-3-27,63,49,38,40,33,30,78,57,34,30.34,30.24,5,2,13,0.00
2013-3-28,70,53,40,46,38,29,89,61,23,30.34,30.23,4,1,10,0.00
2013-3-29,76,57,42,49,43,38,97,66,26,30.37,30.22,4,1,6,0.00
2013-3-30,80,63,44,50,46,41,96,61,29,30.29,30.12,4,1,7,0.00
2013-3-31,83,69,56,60,54,46,81,61,43,30.15,29.98,4,1,9,0.00
2013-4-1,84,70,62,72,64,59,94,81,56,30.01,29.90,5,1,11,0.11
2013-4-2,78,66,55,63,54,49,99,70,38,30.13,29.99,5,1,8,0.01
2013-4-3,80,66,55,66,61,53,98,84,54,30.12,30.04,7,2,11,0.32
2013-4-4,78,71,65,72,67,65,100,89,73,30.08,29.86,3,1,7,0.14
2013-4-5,68,60,55,65,58,53,98,94,89,30.05,29.82,6,1,9,0.36
2013-4-6,70,61,50,59,55,49,95,82,59,30.20,30.04,7,2,11,0.00
2013-4-7,77,67,57,65,60,57,99,80,57,30.22,30.11,5,1,7,0.00
2013-4-8,84,69,56,66,61,55,99,79,49,30.18,30.09,5,1,8,0.00
2013-4-9,83,76,67,70,66,62,92,71,58,30.21,30.13,4,2,8,0.00
2013-4-10,82,72,59,69,65,58,99,81,63,30.17,30.02,4,1,6,0.00
2013-4-11,89,76,69,74,71,68,98,86,58,30.02,29.81,5,1,9,0.34
2013-4-12,89,78,72,76,72,68,99,83,57,29.89,29.76,5,2,9,0.00
2013-4-13,76,71,66,55,52,50,58,50,44,30.03,29.99,4,2,7,0.00
2013-4-14,76,68,64,66,65,62,99,90,64,30.03,29.88,5,2,10,1.31
2013-4-15,87,72,62,71,66,62,100,84,55,30.13,29.83,6,1,9,0.01
2013-4-16,83,80,74,71,70,68,82,71,65,30.19,30.16,4,3,6,0.00
2013-4-17,78,74,66,71,69,66,99,84,74,30.19,30.11,4,2,8,0.00
2013-4-18,87,80,69,72,69,67,95,73,57,30.11,29.98,4,2,7,0.00
2013-4-19,91,84,73,75,73,71,94,71,54,30.02,29.88,4,2,7,0.00
2013-4-20,61,56,50,56,52,48,95,87,78,30.22,30.13,5,2,8,0.80
2013-4-21,70,65,59,64,60,54,95,85,76,30.23,30.12,10,5,16,0.05
2013-4-22,66,63,60,65,61,57,99,92,78,30.18,30.07,10,5,19,0.58
2013-4-23,72,64,57,61,58,56,98,82,62,30.19,30.09,6,2,9,0.00
2013-4-24,84,70,57,67,62,56,99,78,44,30.18,30.09,4,1,6,0.00
2013-4-25,90,74,60,70,66,59,99,77,46,30.22,30.11,4,1,5,0.00
2013-4-26,78,71,64,68,64,56,92,78,67,30.31,30.18,6,3,12,0.00
2013-4-27,83,76,67,66,64,60,90,68,46,30.28,30.17,4,2,7,0.00
2013-4-28,83,74,66,69,66,64,97,80,59,30.19,30.01,6,2,13,0.00
2013-4-29,84,73,66,71,67,64,98,82,58,30.04,29.93,4,1,7,0.40
2013-4-30,84,72,64,72,67,64,100,86,59,30.06,29.96,4,1,8,0.00
2013-5-1,78,70,68,71,67,64,97,89,79,30.08,29.99,8,4,16,0.00
2013-5-2,71,69,68,70,68,66,100,97,90,30.05,29.92,6,3,12,3.65
2013-5-3,71,68,66,68,66,64,100,95,80,29.92,29.85,7,3,16,2.35
2013-5-4,70,68,66,70,67,62,100,96,80,29.86,29.71,6,3,13,3.33
2013-5-5,80,68,59,70,59,53,100,78,40,29.90,29.73,5,1,11,0.01
2013-5-6,76,66,55,59,53,47,93,66,42,30.00,29.87,4,1,6,0.00
2013-5-7,79,67,55,64,58,52,93,73,49,30.03,29.92,4,1,11,0.00
2013-5-8,83,70,57,66,60,56,98,73,47,30.11,30.01,3,1,6,0.00
2013-5-9,88,74,62,68,63,60,99,73,44,30.15,30.08,4,1,5,0.00
2013-5-10,91,76,61,71,65,60,98,73,44,30.14,30.00,4,1,7,0.00
2013-5-11,91,75,67,74,69,65,99,83,53,30.06,29.94,6,1,8,0.25
2013-5-12,86,75,66,71,67,59,100,79,53,30.04,29.94,4,1,8,0.00
2013-5-13,80,71,62,62,50,44,81,50,29,30.17,30.01,4,2,9,0.00
2013-5-14,81,68,55,56,47,39,82,51,25,30.26,30.16,4,1,7,0.00
2013-5-15,89,72,57,63,58,55,96,66,36,30.25,30.09,3,1,6,0.00
2013-5-16,88,76,64,70,65,60,90,71,47,30.15,30.03,4,1,6,0.00
2013-5-17,88,76,64,71,67,58,97,75,38,30.12,30.05,4,1,6,0.00
2013-5-18,89,78,68,75,71,67,98,81,49,30.15,30.03,5,1,10,0.29
2013-5-19,89,77,70,77,72,68,98,86,64,30.13,30.00,5,1,10,0.12
2013-5-20,86,76,70,76,72,68,100,89,69,30.11,30.02,4,1,6,0.26
2013-5-21,86,75,70,75,72,68,100,90,64,30.07,29.96,4,1,7,0.11
2013-5-22,84,76,68,75,72,67,100,87,70,30.01,29.92,3,1,6,0.01
2013-5-23,94,80,70,77,72,69,99,77,48,29.99,29.90,2,1,5,0.05
2013-5-24,91,80,71,73,66,57,98,65,35,30.12,29.95,4,1,9,0.00
2013-5-25,82,76,68,67,60,57,87,60,44,30.27,30.11,5,2,12,0.00
2013-5-26,86,79,71,62,58,54,75,50,37,30.23,30.17,4,2,5,0.00
2013-5-27,86,74,62,69,65,60,99,74,51,30.23,30.15,4,1,9,0.00
2013-5-28,86,77,68,72,69,65,92,76,59,30.20,30.13,4,2,9,0.00
2013-5-29,87,79,72,76,73,70,95,82,66,30.18,30.11,6,2,9,0.00
2013-5-30,87,80,74,75,74,72,96,83,65,30.19,30.10,5,2,9,0.05
2013-5-31,86,79,73,75,73,71,98,82,65,30.17,30.09,5,2,12,0.00
2013-6-1,89,80,74,75,73,71,96,81,60,30.11,30.03,5,2,10,0.08
2013-6-2,89,80,75,79,76,74,98,88,70,30.07,29.89,5,2,14,0.11
2013-6-3,94,80,73,78,75,72,100,85,58,29.97,29.87,4,1,8,0.01
2013-6-4,90,79,72,79,75,72,99,88,67,30.03,29.94,3,0,7,0.09
2013-6-5,86,77,73,76,74,72,99,90,68,30.02,29.94,2,0,7,0.27
2013-6-6,78,75,72,77,74,71,99,98,93,29.95,29.55,6,2,14,2.24
2013-6-7,92,80,71,79,74,70,99,83,59,29.93,29.58,5,2,10,0.15
2013-6-8,94,81,73,79,74,72,99,81,53,30.09,29.92,4,1,9,0.00
2013-6-9,93,80,73,80,75,72,97,87,61,30.13,30.04,5,1,10,0.09
2013-6-10,92,82,76,79,76,74,98,83,61,30.11,30.00,2,1,6,0.02
2013-6-11,94,83,74,78,76,73,98,80,57,30.09,30.00,2,1,7,0.00
2013-6-12,99,86,74,80,76,73,98,74,45,30.07,29.96,2,0,6,0.00
2013-6-13,98,86,77,81,78,76,96,78,52,30.00,29.86,3,1,8,0.00
2013-6-14,95,81,72,80,76,71,100,88,62,29.95,29.79,8,1,9,2.90
2013-6-15,89,81,74,76,72,70,99,76,55,30.10,29.95,4,2,9,0.00
2013-6-16,90,81,73,77,73,70,92,77,62,30.14,30.05,4,2,8,0.00
2013-6-17,94,84,77,81,77,74,96,81,59,30.09,29.95,4,1,7,0.00
2013-6-18,96,84,73,77,74,72,98,75,52,30.04,29.92,4,1,11,0.00
2013-6-19,97,84,74,78,75,72,98,77,48,30.04,29.92,3,1,8,0.00
2013-6-20,89,79,72,79,75,70,99,87,68,30.12,29.99,6,1,8,2.74
2013-6-21,88,79,75,77,75,74,98,88,68,30.14,30.06,5,1,8,0.22
2013-6-22,88,79,74,79,75,73,100,89,68,30.14,30.08,5,0,5,0.05
2013-6-23,92,82,73,79,76,73,100,83,58,30.17,30.09,4,1,9,0.00
2013-6-24,92,82,74,79,76,74,99,83,58,30.21,30.10,5,1,8,0.08
2013-6-25,95,83,75,78,76,71,99,80,51,30.18,30.05,3,1,7,0.00
2013-6-26,94,81,74,78,76,70,98,85,57,30.10,30.00,5,1,7,0.23
2013-6-27,95,82,71,82,75,70,98,81,57,30.03,29.89,3,1,5,0.06
2013-6-28,93,81,77,79,76,73,96,84,60,29.94,29.80,5,1,8,0.00
2013-6-29,88,81,78,79,76,74,95,85,69,29.83,29.75,4,1,7,0.01
2013-6-30,94,80,75,79,76,73,97,89,61,29.87,29.78,4,1,10,0.22
2013-7-1,86,77,74,79,75,72,99,92,75,30.03,29.83,3,1,5,0.73
2013-7-2,89,77,73,79,75,73,100,93,70,30.11,29.99,6,1,13,0.19
2013-7-3,92,80,73,80,76,72,98,89,65,30.15,30.08,4,2,7,0.07
2013-7-4,90,81,73,78,76,72,99,85,66,30.18,30.09,7,2,10,0.20
2013-7-5,90,81,73,79,76,73,100,84,65,30.18,30.11,7,2,12,0.01
2013-7-6,89,82,76,78,76,74,96,83,66,30.15,30.07,5,2,11,0.02
2013-7-7,91,82,76,78,76,74,98,81,60,30.16,30.09,4,2,8,0.00
2013-7-8,92,83,74,79,76,73,100,82,61,30.19,30.10,4,1,6,0.00
2013-7-9,93,83,75,79,75,72,99,79,54,30.19,30.08,3,1,5,0.00
2013-7-10,94,83,74,77,75,71,99,79,49,30.12,29.97,3,1,6,0.00
2013-7-11,96,82,74,78,76,72,99,82,53,30.04,29.88,4,1,6,0.98
2013-7-12,90,78,74,80,76,74,100,92,67,29.95,29.89,4,0,7,0.06
2013-7-13,91,77,71,79,74,70,100,92,64,30.02,29.91,3,0,5,2.36
2013-7-14,87,78,71,78,74,71,100,89,69,30.14,29.99,5,1,7,0.01
2013-7-15,87,79,75,80,76,73,98,91,74,30.18,30.10,5,1,8,0.62
2013-7-16,90,82,76,79,77,76,99,85,66,30.21,30.15,4,1,9,0.00
2013-7-17,91,83,78,79,76,73,96,81,59,30.22,30.11,3,1,8,0.00
2013-7-18,90,82,74,78,76,74,99,82,58,30.15,30.06,3,1,6,0.00
2013-7-19,91,79,74,78,75,72,97,87,63,30.13,30.05,3,0,7,0.39
2013-7-20,90,78,73,80,74,71,98,90,72,30.11,30.03,3,0,8,0.22
2013-7-21,93,80,73,80,76,72,99,86,60,30.11,30.02,5,1,7,0.09
2013-7-22,93,79,76,79,76,74,99,92,61,30.14,30.03,7,1,10,0.65
2013-7-23,92,79,74,81,76,73,99,90,68,30.04,29.92,4,1,7,0.07
2013-7-24,88,79,74,79,75,71,98,89,73,29.93,29.82,4,1,8,0.24
2013-7-25,92,82,73,79,76,72,97,83,60,29.97,29.84,4,1,5,0.00
2013-7-26,93,83,74,80,77,74,99,84,63,30.02,29.94,4,1,6,0.00
2013-7-27,94,81,74,80,77,72,100,89,59,30.01,29.88,8,1,19,2.08
2013-7-28,93,79,73,79,76,72,100,90,54,30.06,29.92,7,0,7,0.07
2013-7-29,96,82,72,80,76,72,99,82,54,30.16,30.04,4,1,8,0.01
2013-7-30,93,82,76,82,78,75,99,89,67,30.18,30.10,4,0,6,0.91
2013-7-31,95,79,74,81,76,73,100,93,62,30.14,30.04,3,0,6,0.84
2013-8-1,93,78,73,81,75,72,100,91,65,30.05,29.94,5,0,5,0.01
2013-8-2,95,82,72,80,76,72,100,83,53,30.05,29.95,5,1,8,0.01
2013-8-3,91,83,76,83,78,75,98,87,67,30.07,29.98,3,0,5,0.07
2013-8-4,97,85,77,81,78,75,99,80,50,30.06,29.93,2,1,6,0.01
2013-8-5,97,86,79,82,79,77,99,81,54,30.01,29.90,3,1,4,0.00
2013-8-6,93,85,80,81,79,78,97,84,64,30.00,29.91,3,1,7,0.00
2013-8-7,91,84,80,81,78,77,93,83,66,30.02,29.95,3,1,8,0.00
2013-8-8,92,83,77,81,78,75,97,86,63,30.07,29.97,4,1,9,0.75
2013-8-9,91,83,77,81,78,76,99,85,63,30.10,29.99,4,1,7,0.17
2013-8-10,96,84,76,81,78,75,100,83,53,30.16,30.07,3,1,9,0.00
2013-8-11,96,86,78,81,78,74,97,78,51,30.17,30.07,4,1,7,0.00
2013-8-12,97,86,78,83,78,75,94,78,56,30.14,30.00,3,1,6,0.01
2013-8-13,98,86,76,80,77,72,96,76,45,30.05,29.90,3,1,5,0.00
2013-8-14,98,84,74,80,77,73,99,81,49,30.01,29.87,7,1,11,1.18
2013-8-15,96,81,74,80,76,73,100,89,57,30.04,29.92,9,1,12,1.40
2013-8-16,90,79,73,80,76,73,100,93,66,30.07,29.95,3,0,5,0.23
2013-8-17,89,81,75,80,78,75,100,91,74,30.12,30.01,3,1,6,0.26
2013-8-18,92,82,75,82,78,74,100,88,67,30.14,30.04,5,1,10,0.01
2013-8-19,94,85,78,81,79,76,99,83,61,30.12,29.98,4,1,6,0.00
2013-8-20,94,84,77,81,78,75,99,83,59,30.14,30.03,5,1,8,0.00
2013-8-21,86,81,78,80,78,76,99,93,77,30.18,30.10,3,0,4,0.00
2013-8-30,82,80,78,77,75,74,88,86,82,29.97,29.92,2,1,10,0.00
2013-8-31,95,81,74,80,76,71,99,86,54,29.97,29.87,7,1,9,0.11
2013-9-1,95,86,79,78,76,75,90,74,53,29.98,29.88,3,1,5,0.00
2013-9-2,95,83,74,81,76,73,97,82,55,30.00,29.89,3,1,9,0.05
2013-9-3,95,84,75,80,77,74,98,82,58,30.00,29.90,3,1,6,0.00
2013-9-4,97,83,76,80,76,73,99,83,51,30.09,29.98,4,1,6,0.01
2013-9-5,96,82,75,80,76,73,96,84,56,30.11,30.01,4,0,5,0.03
2013-9-6,92,78,74,80,76,73,99,92,65,30.07,29.99,5,0,9,0.23
2013-9-7,89,80,71,77,74,71,100,83,60,30.05,29.96,6,2,10,0.01
2013-9-8,90,81,72,75,72,69,99,77,52,30.00,29.93,4,1,10,0.00
2013-9-9,91,81,71,76,73,71,99,79,52,30.08,29.98,3,1,6,0.00
2013-9-10,90,82,74,76,74,72,96,78,59,30.15,30.05,5,1,10,0.00
2013-9-11,91,82,74,78,75,72,96,82,63,30.14,30.05,4,1,12,0.00
2013-9-12,90,81,73,78,75,73,99,84,62,30.07,29.91,5,1,8,0.00
2013-9-13,95,83,73,78,74,71,98,77,48,29.93,29.78,3,0,5,0.00
2013-9-14,96,82,75,81,75,72,93,81,52,30.01,29.83,5,0,7,0.12
2013-9-15,93,83,74,79,76,73,100,81,59,30.10,29.99,4,1,9,0.00
2013-9-16,92,82,76,81,77,74,99,84,63,30.11,30.01,5,1,6,0.51
2013-9-17,86,79,74,79,76,74,100,90,72,30.12,30.02,6,2,15,0.55
2013-9-18,82,77,73,76,74,71,100,92,78,30.13,30.04,8,3,17,3.21
2013-9-19,85,77,73,78,74,71,97,90,77,30.10,30.03,4,1,8,0.32
2013-9-20,88,77,70,75,72,70,100,85,63,30.07,29.94,4,1,10,0.00
2013-9-21,90,79,69,75,72,69,100,83,59,29.97,29.76,4,1,5,0.01
2013-9-22,84,77,73,77,74,72,99,92,78,29.86,29.75,5,0,10,0.28
2013-9-23,82,77,73,77,75,72,100,94,83,29.97,29.85,2,0,4,0.01
2013-9-24,82,77,75,77,75,74,100,95,84,29.97,29.83,4,0,6,0.62
2013-9-25,85,78,75,78,76,74,100,92,77,29.84,29.75,3,0,5,0.07
2013-9-26,79,75,70,76,73,68,99,93,84,29.92,29.74,3,1,8,0.00
2013-9-27,81,74,67,74,70,65,96,88,78,30.02,29.90,7,2,12,0.00
2013-9-28,78,75,72,72,70,67,95,87,74,30.09,29.98,7,3,12,0.00
2013-9-29,82,75,68,73,70,66,96,85,73,30.04,29.97,6,2,11,0.00
2013-9-30,82,75,68,72,68,66,98,81,64,30.06,29.95,5,2,11,0.00
2013-10-1,82,75,68,71,68,65,91,78,64,30.12,30.03,4,1,7,0.00
2013-10-2,84,73,64,71,68,63,99,85,62,30.12,30.06,5,1,7,0.00
2013-10-3,86,76,68,77,73,68,99,89,72,30.12,30.03,3,1,6,0.00
2013-10-4,89,79,72,78,75,72,100,88,64,30.12,30.03,5,1,6,0.00
2013-10-5,86,78,71,77,74,71,100,89,72,30.09,30.01,4,1,8,0.00
2013-10-6,85,78,72,79,75,72,100,92,78,30.02,29.88,3,1,5,0.17
2013-10-7,87,78,73,78,75,72,99,90,70,29.89,29.76,4,1,5,0.00
2013-10-8,81,73,67,77,72,65,100,97,87,30.03,29.79,7,2,13,1.68
2013-10-9,73,65,61,67,63,61,99,94,79,30.11,30.01,3,1,7,0.01
2013-10-10,84,71,62,67,65,61,100,83,52,30.10,29.98,3,1,7,0.01
2013-10-11,85,72,64,68,65,63,99,80,48,30.06,29.95,3,0,6,0.01
2013-10-12,87,74,63,69,65,62,99,77,44,30.05,29.97,3,0,4,0.00
2013-10-13,87,73,62,72,66,62,99,82,47,30.11,30.02,4,1,12,0.00
2013-10-14,78,72,66,71,68,65,97,89,76,30.09,30.01,5,2,10,0.00
2013-10-15,71,70,68,70,68,67,98,95,91,30.03,29.97,4,2,10,0.12
2013-10-16,83,74,66,74,69,65,97,88,71,30.01,29.93,4,1,6,0.00
2013-10-17,86,75,66,75,71,66,100,88,62,30.00,29.90,3,1,5,0.00
2013-10-18,90,78,69,76,73,69,100,85,61,30.01,29.90,3,0,4,0.00
2013-10-19,90,79,72,77,74,71,99,87,63,29.97,29.86,3,0,8,0.09
2013-10-20,79,73,68,73,67,62,96,82,65,30.02,29.91,4,2,8,0.02
2013-10-21,82,75,69,77,72,68,96,91,81,30.04,29.96,6,2,10,0.00
2013-10-22,80,74,71,77,73,70,99,96,88,29.99,29.82,4,1,7,0.51
2013-10-23,77,68,61,70,59,49,100,77,46,30.06,29.83,4,1,7,0.13
2013-10-24,71,61,53,56,49,43,96,67,49,30.21,30.06,4,1,8,0.00
2013-10-25,75,62,51,56,52,46,98,73,47,30.29,30.19,4,1,7,0.00
2013-10-26,73,61,50,59,54,47,94,78,45,30.28,30.15,4,1,7,0.00
2013-10-27,75,61,48,56,51,44,99,75,35,30.19,30.11,3,0,5,0.00
2013-10-28,78,65,54,65,59,53,99,83,58,30.25,30.13,3,1,5,0.00
2013-10-29,78,68,58,68,64,58,99,87,64,30.31,30.21,5,2,8,0.01
2013-10-30,78,70,61,70,66,61,99,87,74,30.29,30.18,5,1,8,0.00
2013-10-31,86,75,67,73,69,66,100,84,60,30.18,30.00,3,1,6,0.01
2013-11-1,84,76,70,74,71,68,96,85,67,30.02,29.83,3,1,9,0.00
2013-11-2,77,67,57,74,64,56,99,91,64,29.98,29.79,4,0,6,2.00
2013-11-3,70,61,53,58,52,47,98,74,45,30.22,29.98,6,2,14,0.00
2013-11-4,72,64,55,66,59,51,98,85,72,30.30,30.20,10,4,19,0.26
2013-11-5,69,67,63,68,65,61,99,95,88,30.29,30.20,8,4,17,0.05
2013-11-6,78,70,66,72,68,66,99,94,79,30.21,30.10,4,2,7,0.01
2013-11-7,81,72,67,71,68,65,99,89,65,30.10,29.99,2,0,7,0.00
2013-11-8,70,60,51,65,52,46,91,75,64,30.23,30.04,9,4,17,0.00
2013-11-9,76,64,51,65,59,50,98,86,61,30.26,30.18,5,2,9,0.00
2013-11-10,76,66,59,67,63,58,100,90,69,30.25,30.14,4,1,9,0.00
2013-11-11,76,65,56,65,61,54,99,88,66,30.22,30.14,4,1,8,0.00
2013-11-12,77,68,61,67,61,50,97,81,55,30.17,30.05,4,1,14,0.00
2013-11-13,61,50,45,50,42,37,83,74,65,30.46,30.17,9,5,19,0.00
2013-11-14,65,54,42,59,50,37,97,86,76,30.42,30.25,6,2,10,0.00
2013-11-15,67,62,56,66,61,55,99,97,91,30.26,30.08,3,0,3,0.08
2013-11-16,76,68,60,69,65,60,100,92,73,30.21,30.11,4,1,7,0.01
2013-11-17,82,73,68,75,70,67,100,93,77,30.14,30.01,2,0,5,0.22
2013-11-18,80,73,69,75,72,68,100,96,84,30.04,29.91,3,0,6,0.28
2013-11-19,71,64,56,71,57,46,100,79,64,30.07,29.93,7,3,13,0.01
2013-11-20,70,65,62,66,62,59,98,91,84,30.21,30.05,7,4,13,0.03
2013-11-21,74,67,64,69,65,63,98,94,84,30.28,30.19,5,2,10,0.00
2013-11-22,78,69,63,71,66,62,100,92,72,30.28,30.15,3,1,6,0.02
2013-11-23,81,69,60,70,65,60,100,89,64,30.15,30.02,3,1,6,0.00
2013-11-24,65,57,53,61,50,42,89,76,63,30.38,30.09,10,5,16,0.00
2013-11-25,69,60,46,62,55,43,95,84,74,30.36,30.13,6,2,14,0.00
2013-11-26,75,70,65,74,68,60,99,94,83,30.14,29.71,4,1,6,1.27
2013-11-27,71,55,40,71,51,34,99,86,73,30.26,29.63,7,3,11,0.10
2013-11-28,56,44,33,47,38,28,89,79,69,30.45,30.26,5,2,12,0.00
2013-11-29,63,53,43,54,47,39,89,81,67,30.47,30.39,7,2,12,0.00
2013-11-30,61,57,55,57,54,50,95,91,84,30.42,30.26,6,2,10,0.00
2013-12-1,70,60,53,63,56,51,97,89,78,30.26,30.02,4,1,11,0.00
2013-12-2,70,59,53,60,56,52,98,90,66,30.02,29.85,3,0,5,0.00
2013-12-3,74,61,50,63,58,50,99,88,67,30.00,29.91,4,1,5,0.01
2013-12-4,76,66,58,70,64,57,99,94,77,30.12,29.97,3,0,5,0.00
2013-12-5,83,70,58,71,65,58,100,88,64,30.19,30.09,3,0,5,0.01
2013-12-6,84,72,63,72,68,63,100,88,63,30.18,30.10,3,0,4,0.00
2013-12-7,84,73,66,73,69,65,100,89,65,30.24,30.15,4,1,7,0.01
2013-12-8,70,66,64,67,65,63,100,96,89,30.27,30.16,5,2,7,0.00
2013-12-9,84,71,63,73,68,63,100,89,65,30.20,30.08,3,0,6,0.00
2013-12-10,80,69,55,72,65,46,98,89,67,30.28,30.05,5,1,11,0.35
2013-12-11,66,58,49,61,53,44,88,84,71,30.33,30.25,5,2,10,0.00
2013-12-12,65,57,51,52,42,29,82,60,27,30.40,30.26,4,2,6,0.00
2013-12-13,66,56,46,58,51,42,96,84,73,30.37,30.16,5,1,8,0.00
2013-12-14,76,67,55,71,65,54,99,94,81,30.16,29.90,3,1,7,0.65
2013-12-15,67,60,48,67,58,44,100,92,79,30.19,29.87,4,1,7,0.46
2013-12-16,58,47,39,46,42,36,97,83,59,30.29,30.18,3,1,7,0.00
2013-12-17,66,50,39,50,43,38,99,79,42,30.31,30.19,3,0,7,0.01
2013-12-18,64,52,42,44,39,30,95,66,28,30.33,30.22,4,1,9,0.00
2013-12-19,70,54,39,60,50,38,99,88,65,30.34,30.22,3,0,4,0.00
2013-12-20,77,61,48,65,58,48,100,89,65,30.25,30.16,3,0,5,0.01
2013-12-21,83,71,59,71,66,58,100,88,61,30.16,30.04,3,1,7,0.00
2013-12-22,84,75,69,74,71,69,100,89,70,30.15,30.07,4,1,8,0.01
2013-12-23,83,74,62,74,70,61,99,88,69,30.16,30.07,4,1,7,0.00
2013-12-24,62,56,48,60,45,36,94,69,42,30.34,30.14,4,2,8,0.02
2013-12-25,60,50,40,55,46,34,93,85,65,30.34,30.27,6,2,13,0.00
2013-12-26,57,54,50,52,50,46,94,88,81,30.31,30.21,3,2,6,0.00
2013-12-27,60,56,52,56,52,49,94,89,79,30.36,30.25,5,2,11,0.01
2013-12-28,70,64,59,68,62,53,99,91,80,30.31,30.00,4,2,9,0.01
2013-12-29,74,69,59,71,67,57,99,94,88,30.03,29.90,4,1,6,1.40
2013-12-30,66,57,49,57,51,48,96,82,58,30.23,30.03,4,1,8,0.00
2013-12-31,62,58,55,53,51,50,93,80,66,30.36,30.22,3,1,6,0.00
2014-1-1,60,57,52,60,55,50,99,95,86,30.34,30.11,3,1,5,0.90
2014-1-2,65,60,52,65,60,47,100,98,78,30.12,29.78,6,1,12,1.54